This is the latest recevied weather packets stored in our database for station/object KA3BQE-13. If no packets are shown the sender has not sent any weather packets the latest 1 day(s).
| Time | Temp. | Humidity | Pressure | Rain* | Wind** | Luminosity | Snow |
|---|---|---|---|---|---|---|---|
| 1836274707 | 18.89° C | 87% | 1018.8 hPa | 0 mm | 0 m/s | 0 W/m² | - |
| 1836274560 | 19.44° C | 85% | 1019 hPa | 0 mm | 0.45 m/s, 16° | 0 W/m² | - |
| 1836274406 | 18.89° C | 87% | 1019.1 hPa | 0 mm | 0.45 m/s, 2° | 0 W/m² | - |
| 1836274259 | 18.89° C | 87% | 1018.9 hPa | 0 mm | 0 m/s | 0 W/m² | - |
| 1836274103 | 19.44° C | 86% | 1018.9 hPa | 0 mm | 0 m/s | 0 W/m² | - |
| 1778050961 | 6.11° C | 96% | 1012.5 hPa | 0 mm | 0.45 m/s, 14° | 0 W/m² | - |
| 1778050659 | 6.11° C | 96% | 1012.6 hPa | 0 mm | 0 m/s | 0 W/m² | - |
| 1778050356 | 6.11° C | 96% | 1012.4 hPa | 0 mm | 0 m/s | 0 W/m² | - |
| 1778050052 | 6.11° C | 96% | 1012.2 hPa | 0 mm | 0 m/s | 0 W/m² | - |
| 1778049748 | 6.11° C | 96% | 1012.3 hPa | 0 mm | 0.45 m/s, 24° | 0 W/m² | - |
| 1778049446 | 6.11° C | 95% | 1012.1 hPa | 0 mm | 0 m/s | 0 W/m² | - |
| 1778049143 | 5.56° C | 95% | 1012.4 hPa | 0 mm | 0 m/s | 0 W/m² | - |
| 1778048841 | 6.11° C | 95% | 1012.3 hPa | 0 mm | 0.45 m/s, 20° | 0 W/m² | - |
| 1778048538 | 5.56° C | 94% | 1012.5 hPa | 0 mm | 0.45 m/s, 3° | 0 W/m² | - |
| 1778048234 | 6.11° C | 94% | 1012 hPa | 0 mm | 0 m/s | 0 W/m² | - |
| 1778047931 | 6.11° C | 94% | 1012.1 hPa | 0 mm | 0.45 m/s, 26° | 0 W/m² | - |
| 1778047630 | 6.11° C | 93% | 1012.1 hPa | 0 mm | 0 m/s | 0 W/m² | - |
| 1778047326 | 6.11° C | 93% | 1012.2 hPa | 0 mm | 0 m/s | 0 W/m² | - |
| 1778047024 | 6.11° C | 93% | 1012.2 hPa | 0 mm | 0 m/s | 0 W/m² | - |
| 1778046720 | 6.67° C | 92% | 1012.1 hPa | 0 mm | 0 m/s | 0 W/m² | - |
| 1778046417 | 6.67° C | 92% | 1012.2 hPa | 0 mm | 0.45 m/s, 15° | 0 W/m² | - |
| 1778046113 | 6.67° C | 91% | 1012.3 hPa | 0 mm | 0.45 m/s, 15° | 0 W/m² | - |
| 1778045811 | 6.67° C | 90% | 1012.2 hPa | 0 mm | 0.45 m/s, 31° | 0 W/m² | - |
| 1778045522 | 7.22° C | 90% | 1012.3 hPa | 0 mm | 0 m/s | 0 W/m² | - |
| 1778045208 | 7.22° C | 90% | 1012.4 hPa | 0 mm | 0.45 m/s, 13° | 0 W/m² | - |
* Rain latest hour (hover to see other rain measurements)
** Current wind speed in m/s (hover to see current wind gust speed)